createdAt,value
2022-11-22T00:00:38.391Z,90.95
2022-11-22T00:01:38.427Z,91.05
2022-11-22T00:02:38.373Z,91.16
2022-11-22T00:03:38.364Z,91.12
2022-11-22T00:04:38.356Z,91.05
2022-11-22T00:05:38.347Z,90.84
2022-11-22T00:06:38.354Z,90.74
2022-11-22T00:07:38.440Z,90.91
2022-11-22T00:08:38.315Z,90.95
2022-11-22T00:09:38.300Z,90.95
2022-11-22T00:10:38.287Z,90.80
2022-11-22T00:11:38.295Z,90.84
2022-11-22T00:12:38.268Z,90.91
2022-11-22T00:13:38.258Z,90.64
2022-11-22T00:14:38.250Z,90.95
2022-11-22T00:15:38.238Z,90.64
2022-11-22T00:16:38.236Z,90.42
2022-11-22T00:17:45.942Z,90.42
2022-11-22T00:18:38.206Z,91.01
2022-11-22T00:19:38.198Z,90.84
2022-11-22T00:20:38.184Z,90.70
2022-11-22T00:21:38.191Z,90.28
2022-11-22T00:22:44.006Z,90.80
2022-11-22T00:23:39.169Z,91.12
2022-11-22T00:24:38.169Z,90.70
2022-11-22T00:25:38.135Z,90.53
2022-11-22T00:26:38.138Z,90.84
2022-11-22T00:27:38.111Z,90.84
2022-11-22T00:28:38.099Z,91.27
2022-11-22T00:29:38.094Z,89.90
2022-11-22T00:30:38.080Z,90.84
2022-11-22T00:31:38.086Z,90.74
2022-11-22T00:32:38.064Z,90.84
2022-11-22T00:33:38.050Z,91.05
2022-11-22T00:34:38.037Z,90.95
2022-11-22T00:35:38.031Z,91.05
2022-11-22T00:36:38.029Z,91.05
2022-11-22T00:37:38.008Z,91.05
2022-11-22T00:38:37.997Z,90.11
2022-11-22T00:39:38.002Z,90.95
2022-11-22T00:40:37.972Z,91.05
2022-11-22T00:41:37.980Z,89.90
2022-11-22T00:42:37.954Z,90.42
2022-11-22T00:43:37.945Z,91.05
2022-11-22T00:44:37.934Z,91.05
2022-11-22T00:45:37.931Z,91.05
2022-11-22T00:46:37.922Z,90.95
2022-11-22T00:47:37.902Z,90.84
2022-11-22T00:48:37.891Z,90.95
2022-11-22T00:49:37.881Z,91.05
2022-11-22T00:50:37.870Z,90.84
2022-11-22T00:51:37.872Z,90.95
2022-11-22T00:52:37.847Z,90.95
2022-11-22T00:53:37.840Z,90.84
2022-11-22T00:54:37.827Z,91.47
2022-11-22T00:55:37.836Z,91.37
2022-11-22T00:56:37.851Z,91.37
2022-11-22T00:57:37.797Z,91.52
2022-11-22T00:58:37.786Z,91.68
2022-11-22T00:59:37.776Z,91.30
2022-11-22T01:00:37.828Z,91.62
2022-11-22T01:01:37.874Z,91.94
2022-11-22T01:02:37.742Z,91.52
2022-11-22T01:03:37.735Z,92.04
2022-11-22T01:04:37.725Z,92.77
2022-11-22T01:05:37.714Z,92.04
2022-11-22T01:06:37.711Z,92.14
2022-11-22T01:07:37.762Z,92.25
2022-11-22T01:08:37.680Z,92.88
2022-11-22T01:09:37.672Z,92.57
2022-11-22T01:10:37.659Z,92.67
2022-11-22T01:11:37.679Z,92.46
2022-11-22T01:12:37.641Z,92.46
2022-11-22T01:13:37.632Z,92.46
2022-11-22T01:14:37.615Z,92.57
2022-11-22T01:15:37.609Z,92.57
2022-11-22T01:16:37.637Z,92.57
2022-11-22T01:17:37.585Z,92.35
2022-11-22T01:18:37.574Z,92.25
2022-11-22T01:19:37.565Z,92.88
2022-11-22T01:20:37.553Z,92.46
2022-11-22T01:21:37.559Z,92.46
2022-11-22T01:22:37.574Z,92.25
2022-11-22T01:23:37.525Z,92.77
2022-11-22T01:24:37.513Z,92.67
2022-11-22T01:25:37.501Z,92.77
2022-11-22T01:26:37.503Z,92.67
2022-11-22T01:27:37.503Z,92.52
2022-11-22T01:28:37.477Z,92.67
2022-11-22T01:29:37.459Z,91.83
2022-11-22T01:30:37.450Z,92.04
2022-11-22T01:31:37.449Z,91.83
2022-11-22T01:32:37.461Z,91.94
2022-11-22T01:33:37.422Z,92.14
2022-11-22T01:34:37.407Z,92.67
2022-11-22T01:35:37.399Z,92.35
2022-11-22T01:36:37.405Z,92.57
2022-11-22T01:37:37.376Z,92.57
2022-11-22T01:38:37.367Z,92.61
2022-11-22T01:39:37.354Z,92.67
2022-11-22T01:40:37.342Z,92.14
2022-11-22T01:41:37.344Z,92.67
2022-11-22T01:42:37.321Z,92.35
2022-11-22T01:43:37.336Z,92.19
2022-11-22T01:44:37.300Z,92.46
2022-11-22T01:45:37.288Z,92.35
2022-11-22T01:46:37.292Z,92.35
2022-11-22T01:47:37.267Z,93.24
2022-11-22T01:48:37.269Z,92.67
2022-11-22T01:49:37.246Z,92.67
2022-11-22T01:50:37.237Z,92.88
2022-11-22T01:51:37.237Z,92.40
2022-11-22T01:52:37.214Z,92.71
2022-11-22T01:53:37.205Z,92.67
2022-11-22T01:54:37.193Z,92.77
2022-11-22T01:55:37.183Z,93.09
2022-11-22T01:56:37.184Z,93.13
2022-11-22T01:57:37.164Z,93.24
2022-11-22T01:58:37.151Z,92.92
2022-11-22T01:59:37.161Z,92.82
2022-11-22T02:00:37.156Z,92.92
2022-11-22T02:01:37.255Z,92.92
2022-11-22T02:02:37.109Z,93.02
2022-11-22T02:03:37.099Z,93.13
2022-11-22T02:04:37.092Z,93.02
2022-11-22T02:05:37.076Z,92.92
2022-11-22T02:06:37.096Z,93.02
2022-11-22T02:07:37.186Z,92.92
2022-11-22T02:08:37.046Z,93.02
2022-11-22T02:09:37.037Z,93.34
2022-11-22T02:10:37.023Z,93.24
2022-11-22T02:11:37.015Z,93.24
2022-11-22T02:12:37.014Z,93.34
2022-11-22T02:13:36.996Z,93.09
2022-11-22T02:14:36.982Z,93.40
2022-11-22T02:15:36.997Z,92.99
2022-11-22T02:16:36.961Z,92.88
2022-11-22T02:17:36.963Z,92.88
2022-11-22T02:18:36.942Z,92.99
2022-11-22T02:19:36.929Z,92.77
2022-11-22T02:20:36.916Z,93.13
2022-11-22T02:21:36.950Z,92.92
2022-11-22T02:22:36.916Z,93.19
2022-11-22T02:23:36.891Z,93.34
2022-11-22T02:24:36.874Z,92.99
2022-11-22T02:25:36.871Z,93.09
2022-11-22T02:26:36.856Z,93.34
2022-11-22T02:27:36.859Z,92.88
2022-11-22T02:28:36.833Z,92.88
2022-11-22T02:29:36.825Z,92.57
2022-11-22T02:30:36.821Z,92.35
2022-11-22T02:31:36.820Z,92.57
2022-11-22T02:32:36.801Z,92.35
2022-11-22T02:33:36.782Z,92.25
2022-11-22T02:34:36.777Z,92.57
2022-11-22T02:35:36.759Z,92.77
2022-11-22T02:36:36.751Z,92.67
2022-11-22T02:37:36.763Z,92.57
2022-11-22T02:38:36.727Z,92.46
2022-11-22T02:39:36.718Z,92.57
2022-11-22T02:40:36.703Z,92.77
2022-11-22T02:41:36.697Z,92.46
2022-11-22T02:42:36.691Z,92.46
2022-11-22T02:43:36.675Z,92.46
2022-11-22T02:44:36.661Z,92.14
2022-11-22T02:45:36.654Z,92.67
2022-11-22T02:46:36.679Z,92.67
2022-11-22T02:47:36.662Z,93.09
2022-11-22T02:48:36.641Z,92.57
2022-11-22T02:49:36.674Z,92.99
2022-11-22T02:50:36.606Z,92.77
2022-11-22T02:51:36.590Z,93.09
2022-11-22T02:52:36.588Z,92.42
2022-11-22T02:53:36.569Z,92.88
2022-11-22T02:54:36.558Z,92.73
2022-11-22T02:55:36.548Z,93.09
2022-11-22T02:56:36.535Z,92.52
2022-11-22T02:57:36.537Z,92.32
2022-11-22T02:58:36.514Z,92.57
2022-11-22T02:59:36.504Z,92.57
2022-11-22T03:00:36.602Z,92.77
2022-11-22T03:01:36.541Z,92.32
2022-11-22T03:02:36.483Z,92.42
2022-11-22T03:03:36.484Z,93.19
2022-11-22T03:04:36.451Z,93.26
2022-11-22T03:05:36.444Z,93.26
2022-11-22T03:06:36.431Z,92.42
2022-11-22T03:07:36.571Z,92.63
2022-11-22T03:08:36.411Z,92.73
2022-11-22T03:09:36.404Z,92.52
2022-11-22T03:10:36.388Z,92.83
2022-11-22T03:11:36.378Z,92.21
2022-11-22T03:12:36.377Z,92.63
2022-11-22T03:13:36.358Z,92.42
2022-11-22T03:14:36.347Z,92.46
2022-11-22T03:15:36.336Z,92.52
2022-11-22T03:16:36.324Z,92.63
2022-11-22T03:17:36.331Z,92.63
2022-11-22T03:18:36.304Z,92.10
2022-11-22T03:19:36.316Z,92.10
2022-11-22T03:20:36.299Z,92.21
2022-11-22T03:21:36.278Z,92.52
2022-11-22T03:22:36.269Z,92.00
2022-11-22T03:23:36.251Z,92.00
2022-11-22T03:24:36.242Z,92.25
2022-11-22T03:25:36.245Z,92.00
2022-11-22T03:26:36.222Z,92.52
2022-11-22T03:27:36.220Z,92.57
2022-11-22T03:28:36.198Z,92.35
2022-11-22T03:29:36.188Z,92.25
2022-11-22T03:30:36.180Z,92.35
2022-11-22T03:31:36.181Z,92.57
2022-11-22T03:32:36.173Z,92.35
2022-11-22T03:33:36.174Z,92.67
2022-11-22T03:34:36.135Z,92.52
2022-11-22T03:35:36.145Z,92.67
2022-11-22T03:36:36.113Z,92.77
2022-11-22T03:37:36.116Z,92.88
2022-11-22T03:38:36.095Z,92.63
2022-11-22T03:39:36.079Z,92.77
2022-11-22T03:40:36.084Z,92.57
2022-11-22T03:41:36.058Z,92.57
2022-11-22T03:42:36.062Z,92.14
2022-11-22T03:43:36.039Z,92.25
2022-11-22T03:44:36.029Z,92.46
2022-11-22T03:45:36.019Z,92.67
2022-11-22T03:46:36.006Z,92.25
2022-11-22T03:47:36.009Z,92.04
2022-11-22T03:48:35.987Z,92.25
2022-11-22T03:49:35.986Z,92.04
2022-11-22T03:50:35.987Z,91.52
2022-11-22T03:51:35.974Z,91.79
2022-11-22T03:52:35.956Z,92.67
2022-11-22T03:53:35.951Z,92.67
2022-11-22T03:54:35.936Z,91.83
2022-11-22T03:55:35.915Z,91.94
2022-11-22T03:56:35.905Z,92.04
2022-11-22T03:57:35.906Z,92.14
2022-11-22T03:58:35.882Z,92.04
2022-11-22T03:59:35.873Z,92.57
2022-11-22T04:00:35.870Z,92.57
2022-11-22T04:01:35.882Z,92.25
2022-11-22T04:02:35.848Z,92.57
2022-11-22T04:03:35.829Z,92.57
2022-11-22T04:04:35.821Z,92.46
2022-11-22T04:05:35.804Z,92.88
2022-11-22T04:06:35.797Z,92.57
2022-11-22T04:07:35.901Z,92.35
2022-11-22T04:08:35.790Z,92.67
2022-11-22T04:09:35.815Z,92.88
2022-11-22T04:10:35.756Z,92.88
2022-11-22T04:11:35.741Z,92.88
2022-11-22T04:12:35.745Z,92.88
2022-11-22T04:13:35.721Z,92.88
2022-11-22T04:14:35.712Z,93.09
2022-11-22T04:15:35.699Z,92.94
2022-11-22T04:16:35.694Z,93.09
2022-11-22T04:17:35.688Z,92.88
2022-11-22T04:18:35.669Z,92.88
2022-11-22T04:19:35.656Z,92.83
2022-11-22T04:20:35.646Z,93.09
2022-11-22T04:21:35.636Z,92.99
2022-11-22T04:22:35.638Z,92.73
2022-11-22T04:23:35.632Z,93.30
2022-11-22T04:24:35.604Z,92.77
2022-11-22T04:25:35.599Z,93.19
2022-11-22T04:26:35.589Z,93.36
2022-11-22T04:27:35.579Z,93.15
2022-11-22T04:29:02.044Z,92.99
2022-11-22T04:29:36.550Z,93.36
2022-11-22T04:30:35.539Z,93.36
2022-11-22T04:31:35.528Z,93.26
2022-11-22T04:32:35.529Z,93.36
2022-11-22T04:33:35.506Z,93.36
2022-11-22T04:34:35.500Z,93.36
2022-11-22T04:35:35.484Z,93.36
2022-11-22T04:36:35.476Z,93.05
2022-11-22T04:37:35.477Z,93.36
2022-11-22T04:38:35.467Z,93.36
2022-11-22T04:39:35.469Z,93.26
2022-11-22T04:40:35.435Z,93.26
2022-11-22T04:41:35.425Z,93.36
2022-11-22T04:42:35.440Z,93.47
2022-11-22T04:43:35.404Z,93.36
2022-11-22T04:44:35.393Z,93.57
2022-11-22T04:45:35.379Z,93.68
2022-11-22T04:46:35.371Z,93.68
2022-11-22T04:47:35.372Z,93.74
2022-11-22T04:48:35.351Z,93.95
2022-11-22T04:49:35.338Z,93.74
2022-11-22T04:50:35.331Z,93.74
2022-11-22T04:51:35.319Z,93.74
2022-11-22T04:52:35.316Z,93.74
2022-11-22T04:53:35.295Z,93.63
2022-11-22T04:54:35.287Z,93.74
2022-11-22T04:55:35.296Z,93.95
2022-11-22T04:56:35.269Z,93.95
2022-11-22T04:57:35.266Z,93.74
2022-11-22T04:58:35.245Z,94.06
2022-11-22T04:59:35.235Z,93.95
2022-11-22T05:00:35.299Z,93.74
2022-11-22T05:01:35.276Z,93.49
2022-11-22T05:02:35.212Z,93.49
2022-11-22T05:03:35.194Z,94.06
2022-11-22T05:04:35.183Z,94.06
2022-11-22T05:05:35.170Z,93.59
2022-11-22T05:06:35.160Z,93.59
2022-11-22T05:07:35.236Z,93.95
2022-11-22T05:08:35.140Z,94.01
2022-11-22T05:09:35.127Z,93.91
2022-11-22T05:10:35.121Z,93.80
2022-11-22T05:11:35.153Z,93.91
2022-11-22T05:12:35.106Z,94.37
2022-11-22T05:13:35.103Z,94.12
2022-11-22T05:14:35.074Z,94.26
2022-11-22T05:15:35.066Z,94.37
2022-11-22T05:16:35.053Z,94.68
2022-11-22T05:17:35.056Z,94.54
2022-11-22T05:18:35.035Z,94.95
2022-11-22T05:19:35.021Z,94.95
2022-11-22T05:20:35.016Z,94.95
2022-11-22T05:21:35.000Z,94.95
2022-11-22T05:22:35.005Z,94.85
2022-11-22T05:23:35.002Z,94.95
2022-11-22T05:24:34.996Z,94.54
2022-11-22T05:25:34.960Z,94.85
2022-11-22T05:26:34.952Z,94.89
2022-11-22T05:27:34.974Z,95.58
2022-11-22T05:28:34.928Z,95.42
2022-11-22T05:29:34.918Z,95.68
2022-11-22T05:30:34.911Z,95.17
2022-11-22T05:31:34.915Z,95.62
2022-11-22T05:32:34.897Z,95.90
2022-11-22T05:33:34.877Z,95.48
2022-11-22T05:34:34.863Z,95.27
2022-11-22T05:35:34.878Z,95.58
2022-11-22T05:36:34.850Z,95.42
2022-11-22T05:37:34.845Z,95.94
2022-11-22T05:38:34.824Z,96.00
2022-11-22T05:39:34.815Z,96.04
2022-11-22T05:40:34.804Z,96.31
2022-11-22T05:41:34.802Z,96.31
2022-11-22T05:42:34.795Z,96.25
2022-11-22T05:43:34.823Z,96.21
2022-11-22T05:44:34.763Z,96.73
2022-11-22T05:45:34.751Z,96.63
2022-11-22T05:46:34.888Z,96.57
2022-11-22T05:47:34.747Z,96.47
2022-11-22T05:48:34.722Z,96.36
2022-11-22T05:49:34.707Z,96.31
2022-11-22T05:50:34.698Z,96.78
2022-11-22T05:51:35.321Z,96.73
2022-11-22T05:52:34.687Z,96.31
2022-11-22T05:53:34.664Z,96.31
2022-11-22T05:54:34.655Z,96.11
2022-11-22T05:55:34.645Z,96.36
2022-11-22T05:56:34.635Z,96.11
2022-11-22T05:57:34.639Z,96.00
2022-11-22T05:58:34.614Z,96.31
2022-11-22T05:59:36.075Z,96.11
2022-11-22T06:00:34.598Z,96.53
2022-11-22T06:01:34.585Z,96.53
2022-11-22T06:02:34.648Z,96.11
2022-11-22T06:03:34.567Z,96.31
2022-11-22T06:04:34.551Z,96.21
2022-11-22T06:05:34.543Z,96.11
2022-11-22T06:06:34.536Z,96.21
2022-11-22T06:07:34.640Z,96.53
2022-11-22T06:08:34.536Z,96.53
2022-11-22T06:09:34.500Z,96.42
2022-11-22T06:10:34.488Z,96.53
2022-11-22T06:11:34.478Z,96.53
2022-11-22T06:12:34.480Z,96.53
2022-11-22T06:13:34.457Z,96.31
2022-11-22T06:14:38.471Z,96.31
2022-11-22T06:15:35.450Z,96.53
2022-11-22T06:16:34.433Z,96.42
2022-11-22T06:17:34.426Z,96.63
2022-11-22T06:18:34.405Z,96.31
2022-11-22T06:19:34.400Z,96.31
2022-11-22T06:20:34.391Z,96.53
2022-11-22T06:21:34.373Z,96.53
2022-11-22T06:22:34.377Z,96.53
2022-11-22T06:23:34.352Z,96.63
2022-11-22T06:24:34.345Z,96.84
2022-11-22T06:25:35.936Z,96.53
2022-11-22T06:26:39.116Z,96.53
2022-11-22T06:27:35.319Z,96.31
2022-11-22T06:28:42.000Z,96.53
2022-11-22T06:29:34.285Z,96.53
2022-11-22T06:30:34.280Z,96.06
2022-11-22T06:31:34.296Z,96.06
2022-11-22T06:32:34.327Z,96.17
2022-11-22T06:33:34.245Z,95.96
2022-11-22T06:34:34.237Z,95.90
2022-11-22T06:35:34.224Z,95.86
2022-11-22T06:36:34.212Z,95.86
2022-11-22T06:37:34.211Z,95.68
2022-11-22T06:38:34.194Z,95.33
2022-11-22T06:39:34.180Z,95.68
2022-11-22T06:40:34.172Z,95.64
2022-11-22T06:41:34.160Z,95.43
2022-11-22T06:42:34.162Z,95.58
2022-11-22T06:43:34.137Z,95.43
2022-11-22T06:44:34.134Z,95.54
2022-11-22T06:45:34.162Z,95.54
2022-11-22T06:46:34.118Z,95.27
2022-11-22T06:47:34.164Z,95.58
2022-11-22T06:48:34.089Z,95.54
2022-11-22T06:49:34.075Z,95.54
2022-11-22T06:50:34.068Z,95.23
2022-11-22T06:51:34.056Z,95.23
2022-11-22T06:52:34.061Z,95.33
2022-11-22T06:53:46.697Z,95.33
2022-11-22T06:54:35.036Z,95.33
2022-11-22T06:55:50.262Z,95.12
2022-11-22T06:56:35.008Z,95.23
2022-11-22T06:57:34.010Z,95.33
2022-11-22T06:58:41.518Z,95.23
2022-11-22T06:59:33.970Z,95.23
2022-11-22T07:00:33.964Z,95.54
2022-11-22T07:01:34.186Z,95.23
2022-11-22T07:02:33.960Z,95.33
2022-11-22T07:03:33.946Z,95.43
2022-11-22T07:04:33.921Z,95.43
2022-11-22T07:05:33.909Z,95.54
2022-11-22T07:06:33.938Z,95.33
2022-11-22T07:07:33.986Z,95.54
2022-11-22T07:08:33.883Z,95.43
2022-11-22T07:09:33.866Z,95.43
2022-11-22T07:10:33.873Z,95.23
2022-11-22T07:11:41.552Z,95.23
2022-11-22T07:12:33.869Z,95.43
2022-11-22T07:13:33.833Z,95.23
2022-11-22T07:14:33.839Z,95.43
2022-11-22T07:15:33.813Z,95.33
2022-11-22T07:16:33.800Z,95.33
2022-11-22T07:17:33.794Z,95.33
2022-11-22T07:18:33.776Z,95.43
2022-11-22T07:19:33.778Z,95.23
2022-11-22T07:20:33.760Z,95.33
2022-11-22T07:21:33.748Z,95.33
2022-11-22T07:22:33.742Z,95.23
2022-11-22T07:23:33.719Z,95.23
2022-11-22T07:24:33.815Z,95.43
2022-11-22T07:25:33.706Z,95.43
2022-11-22T07:26:33.706Z,95.33
2022-11-22T07:27:33.683Z,95.23
2022-11-22T07:28:33.717Z,95.39
2022-11-22T07:29:33.657Z,95.33
2022-11-22T07:30:33.654Z,95.29
2022-11-22T07:31:33.636Z,95.18
2022-11-22T07:32:33.634Z,95.50
2022-11-22T07:33:33.627Z,95.39
2022-11-22T07:34:33.604Z,95.50
2022-11-22T07:35:33.615Z,95.29
2022-11-22T07:36:33.646Z,95.39
2022-11-22T07:37:33.580Z,95.50
2022-11-22T07:38:33.588Z,95.12
2022-11-22T07:39:33.555Z,95.18
2022-11-22T07:40:33.544Z,95.60
2022-11-22T07:41:33.561Z,95.39
2022-11-22T07:42:33.546Z,95.29
2022-11-22T07:43:33.526Z,94.76
2022-11-22T07:44:33.541Z,94.60
2022-11-22T07:45:33.492Z,95.33
2022-11-22T07:46:33.518Z,94.81
2022-11-22T07:47:33.469Z,95.60
2022-11-22T07:48:33.482Z,95.64
2022-11-22T07:49:33.448Z,95.64
2022-11-22T07:50:33.439Z,95.39
2022-11-22T07:51:33.455Z,95.39
2022-11-22T07:52:33.420Z,95.29
2022-11-22T07:53:33.421Z,95.18
2022-11-22T07:54:33.435Z,95.18
2022-11-22T07:55:33.390Z,95.60
2022-11-22T07:56:33.380Z,95.29
2022-11-22T07:57:33.365Z,95.29
2022-11-22T07:58:33.370Z,95.29
2022-11-22T07:59:33.381Z,95.18
2022-11-22T08:00:33.338Z,95.39
2022-11-22T08:01:33.401Z,95.29
2022-11-22T08:02:33.315Z,95.50
2022-11-22T08:03:33.330Z,95.29
2022-11-22T08:04:33.297Z,95.39
2022-11-22T08:05:33.289Z,95.14
2022-11-22T08:06:33.270Z,95.25
2022-11-22T08:07:33.427Z,95.56
2022-11-22T08:08:33.359Z,94.93
2022-11-22T08:09:33.238Z,95.56
2022-11-22T08:10:33.226Z,94.62
2022-11-22T08:11:33.223Z,94.72
2022-11-22T08:12:33.207Z,94.93
2022-11-22T08:13:33.218Z,95.03
2022-11-22T08:14:33.188Z,94.93
2022-11-22T08:15:33.177Z,94.82
2022-11-22T08:16:33.163Z,94.72
2022-11-22T08:17:33.158Z,94.97
2022-11-22T08:18:33.152Z,94.93
2022-11-22T08:19:33.145Z,94.82
2022-11-22T08:20:33.123Z,95.03
2022-11-22T08:21:33.113Z,94.56
2022-11-22T08:22:33.101Z,95.60
2022-11-22T08:23:33.212Z,95.56
2022-11-22T08:24:33.084Z,95.03
2022-11-22T08:25:33.069Z,95.60
2022-11-22T08:26:33.065Z,95.29
2022-11-22T08:27:33.051Z,95.03
2022-11-22T08:28:33.050Z,95.56
2022-11-22T08:29:33.089Z,95.35
2022-11-22T08:30:33.021Z,95.25
2022-11-22T08:31:33.014Z,95.14
2022-11-22T08:32:32.999Z,95.35
2022-11-22T08:33:32.995Z,95.35
2022-11-22T08:34:33.992Z,95.25
2022-11-22T08:35:32.967Z,95.35
2022-11-22T08:36:32.953Z,95.35
2022-11-22T08:37:32.947Z,95.45
2022-11-22T08:38:32.946Z,95.25
2022-11-22T08:39:33.039Z,95.31
2022-11-22T08:40:38.020Z,95.51
2022-11-22T08:41:33.900Z,95.56
2022-11-22T08:42:32.892Z,95.45
2022-11-22T08:43:32.895Z,95.25
2022-11-22T08:44:32.868Z,95.31
2022-11-22T08:45:32.861Z,95.14
2022-11-22T08:46:32.849Z,95.41
2022-11-22T08:47:32.841Z,95.31
2022-11-22T08:48:32.845Z,95.09
2022-11-22T08:49:33.212Z,95.20
2022-11-22T08:50:32.806Z,95.51
2022-11-22T08:51:32.811Z,95.51
2022-11-22T08:52:32.787Z,95.20
2022-11-22T08:53:32.784Z,94.99
2022-11-22T08:54:37.529Z,95.51
2022-11-22T08:55:33.868Z,95.31
2022-11-22T08:56:32.740Z,95.35
2022-11-22T08:57:32.732Z,95.31
2022-11-22T08:58:32.733Z,95.20
2022-11-22T08:59:33.343Z,95.31
2022-11-22T09:00:33.730Z,95.41
2022-11-22T09:01:32.800Z,95.20
2022-11-22T09:02:32.685Z,95.41
2022-11-22T09:03:32.681Z,95.20
2022-11-22T09:04:32.658Z,95.20
2022-11-22T09:05:32.683Z,95.09
2022-11-22T09:08:36.170Z,95.20
2022-11-22T09:09:39.741Z,95.09
2022-11-22T09:10:33.593Z,95.31
2022-11-22T09:11:32.703Z,95.31
2022-11-22T09:12:32.575Z,95.31
2022-11-22T09:13:32.571Z,95.20
2022-11-22T09:14:32.554Z,95.20
2022-11-22T09:15:32.546Z,95.31
2022-11-22T09:16:32.530Z,95.20
2022-11-22T09:17:32.519Z,95.09
2022-11-22T09:18:32.530Z,95.20
2022-11-22T09:19:32.741Z,95.26
2022-11-22T09:20:32.493Z,95.31
2022-11-22T09:21:32.481Z,95.20
2022-11-22T09:22:32.465Z,94.99
2022-11-22T09:23:32.479Z,95.15
2022-11-22T09:24:32.454Z,95.15
2022-11-22T09:25:32.435Z,95.15
2022-11-22T09:26:32.447Z,95.31
2022-11-22T09:27:32.532Z,95.05
2022-11-22T09:28:32.412Z,95.15
2022-11-22T09:29:32.750Z,95.37
2022-11-22T09:30:32.417Z,95.26
2022-11-22T09:31:32.372Z,95.15
2022-11-22T09:32:33.944Z,95.15
2022-11-22T09:33:32.357Z,95.21
2022-11-22T09:34:32.372Z,95.11
2022-11-22T09:35:32.329Z,95.15
2022-11-22T09:36:32.329Z,95.15
2022-11-22T09:37:32.313Z,95.37
2022-11-22T09:38:32.308Z,95.15
2022-11-22T09:39:32.517Z,95.15
2022-11-22T09:40:32.284Z,95.15
2022-11-22T09:41:32.262Z,95.15
2022-11-22T09:42:32.282Z,95.05
2022-11-22T09:43:32.370Z,95.05
2022-11-22T09:44:32.232Z,95.37
2022-11-22T09:45:32.220Z,95.43
2022-11-22T09:46:32.224Z,95.21
2022-11-22T09:47:32.204Z,95.11
2022-11-22T09:48:32.194Z,95.32
2022-11-22T09:49:32.694Z,95.32
2022-11-22T09:50:32.169Z,95.11
2022-11-22T09:51:32.160Z,95.32
2022-11-22T09:52:32.144Z,95.11
2022-11-22T09:53:32.159Z,95.28
2022-11-22T09:54:32.124Z,95.17
2022-11-22T09:55:32.116Z,94.96
2022-11-22T09:56:32.103Z,95.28
2022-11-22T09:57:32.093Z,95.07
2022-11-22T09:58:32.103Z,94.96
2022-11-22T09:59:32.396Z,95.07
2022-11-22T10:00:32.062Z,95.17
2022-11-22T10:01:32.142Z,95.07
2022-11-22T10:02:43.374Z,95.03
2022-11-22T10:03:33.039Z,95.17
2022-11-22T10:04:32.017Z,95.07
2022-11-22T10:05:32.009Z,95.17
2022-11-22T10:06:31.994Z,95.28
2022-11-22T10:07:32.095Z,95.28
2022-11-22T10:08:31.983Z,95.17
2022-11-22T10:09:32.393Z,95.17
2022-11-22T10:10:31.952Z,95.17
2022-11-22T10:11:36.236Z,95.13
2022-11-22T10:12:31.938Z,95.28
2022-11-22T10:13:31.933Z,95.13
2022-11-22T10:14:31.914Z,95.13
2022-11-22T10:15:32.014Z,95.13
2022-11-22T10:16:31.891Z,95.17
2022-11-22T10:17:31.881Z,95.03
2022-11-22T10:18:31.881Z,95.17
2022-11-22T10:19:32.211Z,95.03
2022-11-22T10:20:31.851Z,95.13
2022-11-22T10:21:31.839Z,94.82
2022-11-22T10:22:31.824Z,95.13
2022-11-22T10:23:31.828Z,95.13
2022-11-22T10:24:31.813Z,95.23
2022-11-22T10:25:31.799Z,95.03
2022-11-22T10:26:31.785Z,95.03
2022-11-22T10:27:31.772Z,95.03
2022-11-22T10:28:31.770Z,94.82
2022-11-22T10:29:32.171Z,95.03
2022-11-22T10:30:31.744Z,95.03
2022-11-22T10:31:31.840Z,95.03
2022-11-22T10:32:31.718Z,95.13
2022-11-22T10:33:31.720Z,95.13
2022-11-22T10:34:31.697Z,95.34
2022-11-22T10:35:31.693Z,95.03
2022-11-22T10:36:31.677Z,95.23
2022-11-22T10:37:31.671Z,95.13
2022-11-22T10:38:31.667Z,95.13
2022-11-22T10:39:34.610Z,95.23
2022-11-22T10:40:31.640Z,95.19
2022-11-22T10:41:31.632Z,95.34
2022-11-22T10:42:31.617Z,95.19
2022-11-22T10:43:31.658Z,95.23
2022-11-22T10:44:31.604Z,95.50
2022-11-22T10:45:31.588Z,95.40
2022-11-22T10:46:31.571Z,95.29
2022-11-22T10:47:34.475Z,95.03
2022-11-22T10:48:31.564Z,94.98
2022-11-22T10:49:31.939Z,95.19
2022-11-22T10:50:31.543Z,95.29
2022-11-22T10:51:31.526Z,95.29
2022-11-22T10:52:31.507Z,94.98
2022-11-22T10:53:31.516Z,94.98
2022-11-22T10:54:31.485Z,95.09
2022-11-22T10:55:31.475Z,95.19
2022-11-22T10:56:31.494Z,95.19
2022-11-22T10:57:31.457Z,95.19
2022-11-22T10:58:31.474Z,95.09
2022-11-22T10:59:31.792Z,94.98
2022-11-22T11:00:31.423Z,94.98
2022-11-22T11:01:31.500Z,94.94
2022-11-22T11:02:31.399Z,94.94
2022-11-22T11:03:31.424Z,94.84
2022-11-22T11:04:31.378Z,95.29
2022-11-22T11:05:31.369Z,95.19
2022-11-22T11:06:56.549Z,94.98
2022-11-22T11:07:32.441Z,94.98
2022-11-22T11:08:54.165Z,95.25
2022-11-22T11:10:34.598Z,94.94
2022-11-22T11:11:31.417Z,94.84
2022-11-22T11:12:31.296Z,94.94
2022-11-22T11:13:31.295Z,94.84
2022-11-22T11:14:31.502Z,94.73
2022-11-22T11:15:31.267Z,94.94
2022-11-22T11:16:31.253Z,94.94
2022-11-22T11:17:31.241Z,94.73
2022-11-22T11:18:31.251Z,94.84
2022-11-22T11:19:31.333Z,94.94
2022-11-22T11:20:31.220Z,94.79
2022-11-22T11:21:31.198Z,94.90
2022-11-22T11:22:58.504Z,95.00
2022-11-22T11:23:32.186Z,94.90
2022-11-22T11:24:31.524Z,94.90
2022-11-22T11:25:31.156Z,95.00
2022-11-22T11:26:31.146Z,95.10
2022-11-22T11:27:31.145Z,95.00
2022-11-22T11:28:31.142Z,94.79
2022-11-22T11:29:37.219Z,95.10
2022-11-22T11:30:32.108Z,94.79
2022-11-22T11:31:31.113Z,95.10
2022-11-22T11:32:31.106Z,94.90
2022-11-22T11:33:31.083Z,95.06
2022-11-22T11:34:31.378Z,94.90
2022-11-22T11:35:31.189Z,94.85
2022-11-22T11:36:31.039Z,95.06
2022-11-22T11:37:31.057Z,94.85
2022-11-22T11:38:31.049Z,94.64
2022-11-22T11:39:31.331Z,94.02
2022-11-22T11:40:31.010Z,94.27
2022-11-22T11:41:31.029Z,94.02
2022-11-22T11:42:30.973Z,94.33
2022-11-22T11:43:31.037Z,94.23
2022-11-22T11:44:31.351Z,94.23
2022-11-22T11:45:30.944Z,94.12
2022-11-22T11:46:30.994Z,94.33
2022-11-22T11:47:30.926Z,94.33
2022-11-22T11:48:30.926Z,94.18
2022-11-22T11:49:31.254Z,94.02
2022-11-22T11:50:30.890Z,94.43
2022-11-22T11:51:30.994Z,94.12
2022-11-22T11:52:30.867Z,94.54
2022-11-22T11:53:30.874Z,94.39
2022-11-22T11:54:30.847Z,94.49
2022-11-22T11:55:30.835Z,94.29
2022-11-22T11:56:30.850Z,94.33
2022-11-22T11:57:30.824Z,94.64
2022-11-22T11:58:30.815Z,94.54
2022-11-22T11:59:31.094Z,94.49
2022-11-22T12:00:30.787Z,94.33
2022-11-22T12:01:35.727Z,94.60
2022-11-22T12:02:34.667Z,94.60
2022-11-22T12:03:30.765Z,94.33
2022-11-22T12:04:31.067Z,94.54
2022-11-22T12:05:30.729Z,94.12
2022-11-22T12:06:30.719Z,94.33
2022-11-22T12:07:30.878Z,94.33
2022-11-22T12:08:30.709Z,94.12
2022-11-22T12:09:30.686Z,94.08
2022-11-22T12:10:30.689Z,94.49
2022-11-22T12:11:30.677Z,94.49
2022-11-22T12:12:30.660Z,94.49
2022-11-22T12:13:30.656Z,94.49
2022-11-22T12:14:49.052Z,94.49
2022-11-22T12:15:31.632Z,94.29
2022-11-22T12:16:30.636Z,94.39
2022-11-22T12:17:30.600Z,94.08
2022-11-22T12:18:30.608Z,94.18
2022-11-22T12:19:30.588Z,94.08
2022-11-22T12:20:30.583Z,93.87
2022-11-22T12:21:30.560Z,93.98
2022-11-22T12:22:48.887Z,93.77
2022-11-22T12:23:31.658Z,93.56
2022-11-22T12:25:03.105Z,93.77
2022-11-22T12:25:33.197Z,93.56
2022-11-22T12:26:30.506Z,93.87
2022-11-22T12:27:30.495Z,93.35
2022-11-22T12:28:30.532Z,93.46
2022-11-22T12:29:30.480Z,93.35
2022-11-22T12:30:30.485Z,93.56
2022-11-22T12:31:30.450Z,93.77
2022-11-22T12:32:30.447Z,93.66
2022-11-22T12:33:30.430Z,93.56
2022-11-22T12:34:30.619Z,93.66
2022-11-22T12:35:30.410Z,93.77
2022-11-22T12:36:32.945Z,93.66
2022-11-22T12:37:30.391Z,93.77
2022-11-22T12:38:30.375Z,93.66
2022-11-22T12:39:30.504Z,93.56
2022-11-22T12:40:30.354Z,93.77
2022-11-22T12:41:30.343Z,93.73
2022-11-22T12:42:30.342Z,93.77
2022-11-22T12:43:30.322Z,93.56
2022-11-22T12:44:30.677Z,93.31
2022-11-22T12:45:30.299Z,93.35
2022-11-22T12:46:30.292Z,93.35
2022-11-22T12:47:30.279Z,93.77
2022-11-22T12:48:30.428Z,93.77
2022-11-22T12:49:30.269Z,93.35
2022-11-22T12:50:30.249Z,93.24
2022-11-22T12:51:30.236Z,93.77
2022-11-22T12:52:30.228Z,93.35
2022-11-22T12:53:30.217Z,93.77
2022-11-22T12:54:30.468Z,93.73
2022-11-22T12:55:30.323Z,93.56